Time;durP1;ratioP1;P1;durP2;ratioP2;P2;SDS_P1;SDS_P2;PMS_P1;PMS_P2;Temp;Humidity;BMP_temperature;BMP_pressure;BME280_temperature;BME280_humidity;BME280_pressure;Samples;Min_cycle;Max_cycle;Signal;HPM_P1;HPM_P2
2022/11/14 00:00:58;;;;;;;54.60;11.10;;;;;;;2.48;100.00;93860.63;4910700;29;20040;-58
2022/11/14 00:03:25;;;;;;;36.92;12.38;;;;;;;2.43;100.00;93863.63;4911892;29;20477;-57
2022/11/14 00:05:51;;;;;;;50.25;10.05;;;;;;;2.44;100.00;93869.84;4911072;29;20151;-58
2022/11/14 00:08:22;;;;;;;45.13;13.10;;;;;;;2.38;100.00;93856.59;4912067;29;20087;-55
2022/11/14 00:10:50;;;;;;;53.80;10.25;;;;;;;2.46;100.00;93845.88;4914080;29;20138;-58
2022/11/14 00:13:18;;;;;;;74.13;10.20;;;;;;;2.36;100.00;93848.06;4915493;29;20452;-56
2022/11/14 00:15:49;;;;;;;27.05;9.07;;;;;;;2.51;100.00;93849.03;4914458;29;20410;-58
2022/11/14 00:18:17;;;;;;;50.65;10.15;;;;;;;2.45;100.00;93855.91;4915332;29;20064;-57
2022/11/14 00:20:52;;;;;;;28.90;10.37;;;;;;;2.54;100.00;93855.66;4914387;29;20047;-55
2022/11/14 00:23:20;;;;;;;45.75;9.25;;;;;;;2.52;100.00;93850.59;4914165;29;20056;-57
2022/11/14 00:25:47;;;;;;;48.25;10.25;;;;;;;2.58;100.00;93859.97;4914550;29;20110;-55
2022/11/14 00:28:14;;;;;;;37.67;9.65;;;;;;;2.55;100.00;93851.81;4915242;29;20485;-55
2022/11/14 00:30:45;;;;;;;32.08;9.25;;;;;;;2.61;100.00;93847.63;4914353;29;20060;-55
2022/11/14 00:33:12;;;;;;;50.47;10.53;;;;;;;2.65;100.00;93847.69;4914883;29;20413;-56
2022/11/14 00:35:50;;;;;;;32.85;9.35;;;;;;;2.56;100.00;93847.97;4914204;29;20055;-54
2022/11/14 00:38:17;;;;;;;31.25;9.18;;;;;;;2.53;100.00;93845.97;4898195;29;20047;-54
2022/11/14 00:40:43;;;;;;;54.80;9.38;;;;;;;2.51;100.00;93840.91;4898892;29;20045;-55
2022/11/14 00:43:10;;;;;;;46.22;10.57;;;;;;;2.50;100.00;93838.59;4895791;29;20057;-52
2022/11/14 00:45:36;;;;;;;82.37;10.60;;;;;;;2.56;100.00;93824.34;4895550;29;20052;-57
2022/11/14 00:48:03;;;;;;;82.50;10.10;;;;;;;2.43;100.00;93831.13;4895827;29;20096;-54
2022/11/14 00:50:30;;;;;;;125.78;10.80;;;;;;;2.38;100.00;93834.94;4895835;29;20056;-55
2022/11/14 00:52:56;;;;;;;48.25;9.07;;;;;;;2.32;100.00;93830.22;4895095;29;20045;-53
2022/11/14 00:55:23;;;;;;;52.63;10.10;;;;;;;2.43;100.00;93825.72;4895590;29;20052;-55
2022/11/14 00:57:50;;;;;;;44.63;8.97;;;;;;;2.52;100.00;93817.34;4894534;29;20056;-55
2022/11/14 01:00:16;;;;;;;33.10;9.10;;;;;;;2.60;100.00;93825.19;4895838;29;20049;-55
2022/11/14 01:02:43;;;;;;;46.35;9.10;;;;;;;2.51;100.00;93821.19;4893697;29;20486;-55
2022/11/14 01:05:09;;;;;;;43.33;9.70;;;;;;;2.62;100.00;93818.59;4895467;29;20104;-52
2022/11/14 01:07:36;;;;;;;36.13;9.13;;;;;;;2.55;100.00;93816.59;4894627;29;20052;-55
2022/11/14 01:10:03;;;;;;;73.67;9.70;;;;;;;2.45;100.00;93820.69;4895205;29;20107;-54
2022/11/14 01:12:30;;;;;;;35.10;9.32;;;;;;;2.60;100.00;93825.19;4895604;29;20055;-56
2022/11/14 01:14:57;;;;;;;50.05;9.77;;;;;;;2.57;100.00;93825.13;4893484;29;20149;-55
2022/11/14 01:17:23;;;;;;;33.28;9.70;;;;;;;2.54;100.00;93817.75;4895448;29;20123;-55
2022/11/14 01:19:50;;;;;;;68.45;8.48;;;;;;;2.46;100.00;93819.56;4894377;29;20059;-58
2022/11/14 01:22:16;;;;;;;46.83;9.73;;;;;;;2.48;100.00;93811.88;4894314;29;20556;-55
2022/11/14 01:24:43;;;;;;;87.25;10.23;;;;;;;2.48;100.00;93809.16;4893618;29;20063;-60
2022/11/14 01:27:10;;;;;;;36.80;8.85;;;;;;;2.53;100.00;93805.34;4895329;29;20415;-54
2022/11/14 01:29:36;;;;;;;49.03;10.02;;;;;;;2.60;100.00;93795.38;4894945;29;20557;-54
2022/11/14 01:32:03;;;;;;;63.33;10.85;;;;;;;2.56;100.00;93788.34;4894800;29;20045;-58
2022/11/14 01:34:30;;;;;;;54.57;12.87;;;;;;;2.74;100.00;93788.59;4895213;29;20052;-57
2022/11/14 01:36:56;;;;;;;112.20;12.50;;;;;;;2.55;100.00;93782.13;4894658;29;20044;-56
2022/11/14 01:39:25;;;;;;;45.53;10.25;;;;;;;2.67;100.00;93778.41;4899717;29;20481;-57
2022/11/14 01:41:52;;;;;;;57.63;9.88;;;;;;;2.70;100.00;93774.22;4913007;29;20048;-56
2022/11/14 01:44:45;;;;;;;81.85;10.82;;;;;;;2.57;100.00;93773.66;4913807;29;20148;-54
2022/11/14 01:47:17;;;;;;;83.27;10.93;;;;;;;2.62;100.00;93767.13;4912949;29;20417;-54
2022/11/14 01:49:47;;;;;;;73.50;10.07;;;;;;;2.55;100.00;93771.31;4913172;29;20651;-57
2022/11/14 01:52:23;;;;;;;89.60;10.60;;;;;;;2.59;100.00;93768.66;4913852;29;20048;-57
2022/11/14 01:55:01;;;;;;;78.22;11.13;;;;;;;2.59;100.00;93769.41;4912865;29;20052;-54
2022/11/14 01:57:37;;;;;;;51.47;10.52;;;;;;;2.56;100.00;93772.88;4913597;29;20052;-56
2022/11/14 02:00:07;;;;;;;39.73;10.10;;;;;;;2.53;100.00;93772.81;4912065;29;20950;-56
2022/11/14 02:02:34;;;;;;;37.88;9.38;;;;;;;2.53;100.00;93776.31;4913374;29;20056;-55
2022/11/14 02:05:11;;;;;;;46.17;9.57;;;;;;;2.49;100.00;93786.31;4912350;29;20095;-56
2022/11/14 02:07:40;;;;;;;33.08;9.38;;;;;;;2.44;100.00;93780.47;4912818;29;20051;-56
2022/11/14 02:10:14;;;;;;;38.35;9.38;;;;;;;2.45;100.00;93790.13;4913027;29;20448;-54
2022/11/14 02:12:41;;;;;;;73.73;11.13;;;;;;;2.47;100.00;93788.63;4913020;29;20099;-56
2022/11/14 02:15:08;;;;;;;63.92;11.07;;;;;;;2.38;100.00;93798.97;4913002;29;20052;-54
2022/11/14 02:17:35;;;;;;;61.53;11.05;;;;;;;2.44;100.00;93789.38;4912789;29;20048;-55
2022/11/14 02:20:02;;;;;;;48.63;10.63;;;;;;;2.52;100.00;93792.94;4913026;29;20110;-54
2022/11/14 02:22:31;;;;;;;30.58;9.68;;;;;;;2.49;100.00;93799.88;4896737;29;20054;-52
2022/11/14 02:24:58;;;;;;;31.37;9.53;;;;;;;2.43;100.00;93800.56;4912128;29;20044;-55
2022/11/14 02:27:25;;;;;;;24.85;8.35;;;;;;;2.40;100.00;93788.53;4912906;29;20106;-57
2022/11/14 02:29:52;;;;;;;27.05;9.85;;;;;;;2.38;100.00;93790.84;4912031;29;20052;-58
2022/11/14 02:32:18;;;;;;;27.05;9.95;;;;;;;2.43;100.00;93787.00;4912843;29;20055;-57
2022/11/14 02:34:45;;;;;;;25.17;9.38;;;;;;;2.46;100.00;93786.28;4895942;29;20048;-53
2022/11/14 02:37:11;;;;;;;27.07;9.50;;;;;;;2.51;100.00;93789.44;4913095;29;20056;-55
2022/11/14 02:39:38;;;;;;;28.52;10.45;;;;;;;2.55;100.00;93774.00;4905535;29;20047;-55
2022/11/14 02:42:05;;;;;;;29.63;11.25;;;;;;;2.65;100.00;93780.72;4893593;29;20049;-55
2022/11/14 02:44:32;;;;;;;28.52;10.48;;;;;;;2.69;100.00;93778.06;4877468;29;20055;-54
2022/11/14 02:46:58;;;;;;;25.67;9.90;;;;;;;2.71;100.00;93762.22;4893018;29;20049;-57
2022/11/14 02:49:25;;;;;;;25.77;9.40;;;;;;;2.72;100.00;93769.22;4893845;29;20420;-52
2022/11/14 02:51:52;;;;;;;28.95;10.00;;;;;;;2.71;100.00;93760.28;4893071;29;20053;-56
2022/11/14 02:54:18;;;;;;;26.48;9.93;;;;;;;2.69;100.00;93768.00;4893773;29;20049;-58
2022/11/14 02:56:45;;;;;;;26.23;9.70;;;;;;;2.70;100.00;93763.38;4876773;29;20056;-55
2022/11/14 02:59:11;;;;;;;30.20;10.55;;;;;;;2.71;100.00;93756.78;4893368;29;20052;-57
2022/11/14 03:01:38;;;;;;;26.43;9.83;;;;;;;2.68;100.00;93758.31;4905266;29;20048;-54
2022/11/14 03:04:05;;;;;;;32.33;9.48;;;;;;;2.72;100.00;93766.50;4912148;29;20044;-54
2022/11/14 03:06:31;;;;;;;28.80;9.65;;;;;;;2.65;100.00;93761.75;4912506;29;20048;-57
2022/11/14 03:08:58;;;;;;;35.80;11.00;;;;;;;2.66;100.00;93763.31;4911569;29;20055;-54
2022/11/14 03:11:25;;;;;;;31.40;10.43;;;;;;;2.63;100.00;93760.56;4912313;29;20052;-57
2022/11/14 03:13:51;;;;;;;30.67;10.70;;;;;;;2.63;100.00;93764.06;4911643;29;20054;-53
2022/11/14 03:16:18;;;;;;;32.35;10.05;;;;;;;2.68;100.00;93768.38;4912200;29;20056;-54
2022/11/14 03:18:45;;;;;;;38.42;9.90;;;;;;;2.72;100.00;93772.69;4911597;29;20130;-58
2022/11/14 03:21:15;;;;;;;37.22;10.55;;;;;;;2.71;100.00;93778.47;4912168;29;20212;-55
2022/11/14 03:23:42;;;;;;;38.75;11.52;;;;;;;2.70;100.00;93772.28;4911689;29;20201;-57
2022/11/14 03:26:10;;;;;;;38.63;11.40;;;;;;;2.71;100.00;93773.81;4911815;29;20044;-55
2022/11/14 03:28:38;;;;;;;34.10;10.80;;;;;;;2.73;100.00;93778.88;4911740;29;20093;-57
2022/11/14 03:31:06;;;;;;;33.92;11.30;;;;;;;2.75;100.00;93784.72;4911843;29;20055;-56
2022/11/14 03:33:34;;;;;;;29.75;10.98;;;;;;;2.76;100.00;93805.25;4912172;29;20405;-59
2022/11/14 03:36:01;;;;;;;28.98;11.20;;;;;;;2.75;100.00;93812.59;4911026;29;20188;-57
2022/11/14 03:38:28;;;;;;;28.50;10.30;;;;;;;2.84;100.00;93811.53;4912292;29;20052;-56
2022/11/14 03:40:58;;;;;;;28.63;10.27;;;;;;;2.89;100.00;93801.13;4911232;29;20055;-57
2022/11/14 03:43:28;;;;;;;27.20;10.38;;;;;;;2.87;100.00;93803.44;4911819;29;20492;-55
2022/11/14 03:45:57;;;;;;;27.50;10.75;;;;;;;2.96;100.00;93805.88;4914783;29;20107;-56
2022/11/14 03:48:24;;;;;;;27.67;10.30;;;;;;;3.02;100.00;93807.13;4915977;29;20398;-57
2022/11/14 03:50:50;;;;;;;28.37;11.30;;;;;;;2.98;100.00;93804.34;4915295;29;20096;-54
2022/11/14 03:53:17;;;;;;;30.25;11.00;;;;;;;3.04;100.00;93804.81;4915721;29;20054;-57
2022/11/14 03:55:44;;;;;;;31.33;11.65;;;;;;;2.98;100.00;93796.22;4912617;29;20056;-55
2022/11/14 03:58:10;;;;;;;29.27;11.55;;;;;;;3.07;100.00;93795.94;4897418;29;20057;-58
2022/11/14 04:00:37;;;;;;;32.22;12.52;;;;;;;3.08;100.00;93785.84;4896636;29;20107;-58
2022/11/14 04:03:04;;;;;;;32.53;11.87;;;;;;;3.14;100.00;93776.22;4896698;29;20044;-57
2022/11/14 04:05:31;;;;;;;33.55;12.23;;;;;;;3.15;100.00;93764.25;4896556;29;20052;-56
2022/11/14 04:07:57;;;;;;;32.30;11.80;;;;;;;3.16;100.00;93768.53;4896186;29;20154;-58
2022/11/14 04:10:24;;;;;;;31.50;11.65;;;;;;;3.27;100.00;93747.72;4896514;29;20115;-58
2022/11/14 04:12:52;;;;;;;28.20;11.18;;;;;;;3.33;100.00;93759.78;4896023;29;20565;-56
2022/11/14 04:15:19;;;;;;;32.07;11.80;;;;;;;3.30;100.00;93757.81;4896418;29;20049;-55
2022/11/14 04:17:46;;;;;;;30.23;11.73;;;;;;;3.29;100.00;93755.47;4896096;29;20053;-58
2022/11/14 04:20:14;;;;;;;30.08;12.20;;;;;;;3.32;100.00;93752.00;4896088;29;20060;-56
2022/11/14 04:22:40;;;;;;;29.67;10.60;;;;;;;3.41;100.00;93763.34;4895798;29;20049;-56
2022/11/14 04:25:08;;;;;;;33.90;11.98;;;;;;;3.39;100.00;93754.81;4879683;29;20056;-56
2022/11/14 04:27:35;;;;;;;29.60;11.90;;;;;;;3.40;100.00;93761.78;4895512;29;20071;-57
2022/11/14 04:30:04;;;;;;;28.60;11.02;;;;;;;3.33;100.00;93753.59;4896258;29;20046;-56
2022/11/14 04:32:31;;;;;;;31.58;11.63;;;;;;;3.36;100.00;93748.19;4895556;29;20067;-55
2022/11/14 04:34:58;;;;;;;30.02;12.07;;;;;;;3.41;100.00;93738.94;4895236;29;20041;-58
2022/11/14 04:37:25;;;;;;;31.88;12.10;;;;;;;3.41;100.00;93741.63;4895934;29;20049;-56
2022/11/14 04:39:52;;;;;;;33.17;12.07;;;;;;;3.43;100.00;93746.69;4903726;29;20048;-55
2022/11/14 04:42:18;;;;;;;37.13;12.48;;;;;;;3.34;100.00;93741.56;4914587;29;20062;-58
2022/11/14 04:44:45;;;;;;;45.13;13.45;;;;;;;3.35;100.00;93749.34;4897581;29;20056;-57
2022/11/14 04:47:12;;;;;;;37.28;12.95;;;;;;;3.36;100.00;93756.34;4914536;29;20052;-53
2022/11/14 04:49:38;;;;;;;32.30;12.20;;;;;;;3.36;100.00;93748.19;4914267;29;20062;-56
2022/11/14 04:52:05;;;;;;;36.03;12.67;;;;;;;3.38;100.00;93745.88;4914695;29;20048;-55
2022/11/14 04:54:32;;;;;;;32.63;11.95;;;;;;;3.39;100.00;93747.44;4914725;29;20044;-55
2022/11/14 04:56:58;;;;;;;33.22;13.23;;;;;;;3.42;100.00;93750.56;4913855;29;20087;-53
2022/11/14 04:59:25;;;;;;;32.58;11.93;;;;;;;3.45;100.00;93756.00;4914711;29;20052;-55
2022/11/14 05:01:52;;;;;;;35.17;12.88;;;;;;;3.48;100.00;93754.47;4914224;29;20119;-57
2022/11/14 05:04:18;;;;;;;37.20;12.30;;;;;;;3.48;100.00;93760.72;4914287;29;20062;-54
2022/11/14 05:06:45;;;;;;;33.67;12.20;;;;;;;3.55;100.00;93763.47;4914067;29;20131;-52
2022/11/14 05:09:12;;;;;;;32.85;13.00;;;;;;;3.52;100.00;93758.81;4914322;29;20624;-58
2022/11/14 05:11:38;;;;;;;34.63;13.55;;;;;;;3.57;100.00;93757.69;4913894;29;20062;-58
2022/11/14 05:14:05;;;;;;;39.20;13.38;;;;;;;3.63;100.00;93758.13;4914095;29;20052;-58
2022/11/14 05:16:32;;;;;;;30.50;12.33;;;;;;;3.72;100.00;93747.69;4914529;29;20391;-57
2022/11/14 05:18:58;;;;;;;33.47;12.50;;;;;;;3.72;100.00;93753.94;4913650;29;20048;-58
2022/11/14 05:21:26;;;;;;;37.83;13.48;;;;;;;3.68;100.00;93755.84;4914072;29;20044;-57
2022/11/14 05:23:53;;;;;;;36.75;12.60;;;;;;;3.69;100.00;93753.91;4913743;29;20050;-58
2022/11/14 05:26:19;;;;;;;34.30;12.77;;;;;;;3.71;100.00;93749.66;4913775;29;20066;-57
2022/11/14 05:28:46;;;;;;;34.77;13.17;;;;;;;3.84;100.00;93739.25;4878210;29;20053;-54
2022/11/14 05:31:16;;;;;;;34.00;13.27;;;;;;;3.89;100.00;93746.28;4876740;29;20071;-54
2022/11/14 05:33:44;;;;;;;283.48;133.95;;;;;;;3.98;100.00;93736.66;4859695;29;20124;-55
2022/11/14 05:36:13;;;;;;;35.70;14.18;;;;;;;3.90;100.00;93739.69;4875688;29;20127;-55
2022/11/14 05:38:41;;;;;;;33.85;13.55;;;;;;;3.97;100.00;93742.47;4875730;29;20060;-57
2022/11/14 05:41:13;;;;;;;34.53;13.97;;;;;;;4.00;100.00;93728.94;4912396;29;20485;-55
2022/11/14 05:43:40;;;;;;;35.63;13.63;;;;;;;4.11;100.00;93722.78;4913288;29;20510;-56
2022/11/14 05:46:10;;;;;;;30.15;13.35;;;;;;;4.11;100.00;93729.00;4913416;29;20048;-55
2022/11/14 05:48:37;;;;;;;28.67;11.95;;;;;;;4.14;100.00;93728.22;4913013;29;20082;-56
2022/11/14 05:51:05;;;;;;;26.27;11.73;;;;;;;4.13;100.00;93718.53;4913150;29;20052;-57
2022/11/14 05:53:33;;;;;;;26.67;11.50;;;;;;;4.20;100.00;93732.16;4913545;29;20059;-54
2022/11/14 05:56:05;;;;;;;26.65;10.82;;;;;;;4.27;100.00;93730.63;4912712;29;20055;-60
2022/11/14 05:58:33;;;;;;;26.40;11.50;;;;;;;4.34;100.00;93715.13;4913441;29;20056;-57
2022/11/14 06:01:06;;;;;;;27.35;11.23;;;;;;;4.47;100.00;93723.75;4881041;29;20088;-58
2022/11/14 06:03:34;;;;;;;30.25;12.65;;;;;;;4.55;100.00;93733.50;4876034;29;20097;-57
2022/11/14 06:06:02;;;;;;;24.40;10.60;;;;;;;4.64;100.00;93726.94;4874885;29;20853;-54
2022/11/14 06:08:30;;;;;;;20.55;9.98;;;;;;;4.70;100.00;93728.88;4875196;29;20045;-55
2022/11/14 06:11:10;;;;;;;23.40;10.15;;;;;;;4.77;100.00;93725.44;4875187;29;20053;-55
2022/11/14 06:13:37;;;;;;;18.80;9.05;;;;;;;4.85;100.00;93737.88;4874893;29;20654;-58
2022/11/14 06:16:08;;;;;;;17.23;7.68;;;;;;;4.89;100.00;93732.44;4875064;29;20045;-52
2022/11/14 06:18:35;;;;;;;16.53;7.33;;;;;;;4.95;100.00;93739.06;4875482;29;20574;-54
2022/11/14 06:21:13;;;;;;;16.17;8.05;;;;;;;5.02;100.00;93732.88;4874143;29;21546;-54
2022/11/14 06:23:41;;;;;;;14.20;7.10;;;;;;;5.01;100.00;93729.41;4875244;29;20057;-58
2022/11/14 06:26:22;;;;;;;13.70;7.05;;;;;;;5.04;100.00;93739.50;4875248;29;20310;-55
2022/11/14 06:28:50;;;;;;;15.60;7.55;;;;;;;5.01;100.00;93745.72;4874704;29;20744;-56
2022/11/14 06:31:19;;;;;;;16.87;8.67;;;;;;;5.07;100.00;93744.19;4874832;29;20075;-58
2022/11/14 06:33:46;;;;;;;17.13;8.32;;;;;;;5.05;100.00;93740.25;4873888;29;20053;-58
2022/11/14 06:36:12;;;;;;;13.90;7.28;;;;;;;5.08;100.00;93740.28;4874049;29;20059;-56
2022/11/14 06:38:40;;;;;;;18.73;9.05;;;;;;;5.07;100.00;93749.63;4873728;29;20055;-55
2022/11/14 06:41:17;;;;;;;17.55;7.93;;;;;;;5.11;100.00;93755.03;4893223;29;20050;-55
2022/11/14 06:43:46;;;;;;;13.83;6.43;;;;;;;5.14;100.00;93762.44;4911381;29;20054;-55
2022/11/14 06:46:15;;;;;;;12.57;6.38;;;;;;;5.18;100.00;93758.56;4911480;29;20060;-55
2022/11/14 06:48:43;;;;;;;13.02;6.38;;;;;;;5.20;100.00;93767.13;4911205;29;20044;-55
2022/11/14 06:51:11;;;;;;;16.05;7.43;;;;;;;5.24;100.00;93766.38;4911241;29;20048;-55
2022/11/14 06:53:38;;;;;;;16.85;7.20;;;;;;;5.22;100.00;93768.69;4911170;29;20048;-53
2022/11/14 06:56:08;;;;;;;17.77;7.40;;;;;;;5.26;100.00;93775.69;4911269;29;20048;-55
2022/11/14 06:58:37;;;;;;;16.15;7.43;;;;;;;5.23;100.00;93772.94;4894364;29;20083;-56
2022/11/14 07:01:10;;;;;;;12.88;6.82;;;;;;;5.19;100.00;93772.94;4894032;29;20106;-55
2022/11/14 07:03:37;;;;;;;13.75;6.65;;;;;;;5.25;100.00;93776.06;4911130;29;20052;-51
2022/11/14 07:06:04;;;;;;;13.25;6.90;;;;;;;5.24;100.00;93782.69;4911294;29;20040;-60
2022/11/14 07:08:32;;;;;;;16.03;6.80;;;;;;;5.31;100.00;93777.25;4911727;29;20064;-57
2022/11/14 07:11:05;;;;;;;13.98;7.10;;;;;;;5.32;100.00;93781.53;4911130;29;20044;-56
2022/11/14 07:13:33;;;;;;;13.48;7.10;;;;;;;5.32;100.00;93779.59;4911556;29;20048;-56
2022/11/14 07:16:00;;;;;;;17.98;8.30;;;;;;;5.27;100.00;93776.47;4911043;29;20444;-57
2022/11/14 07:18:30;;;;;;;15.52;7.72;;;;;;;5.36;100.00;93779.59;4910448;29;20048;-56
2022/11/14 07:21:04;;;;;;;15.07;7.47;;;;;;;5.39;100.00;93785.06;4910829;29;20051;-56
2022/11/14 07:23:33;;;;;;;12.30;6.38;;;;;;;5.46;100.00;93781.56;4911528;29;20058;-57
2022/11/14 07:26:07;;;;;;;14.05;6.65;;;;;;;5.43;100.00;93784.28;4911060;29;20660;-57
2022/11/14 07:28:35;;;;;;;14.25;7.85;;;;;;;5.45;100.00;93771.06;4911164;29;20060;-59
2022/11/14 07:31:03;;;;;;;14.15;7.38;;;;;;;5.49;100.00;93778.06;4872011;29;1092479;-57
2022/11/14 07:33:31;;;;;;;15.07;7.67;;;;;;;5.54;100.00;93772.25;4912117;29;20144;-57
2022/11/14 07:35:58;;;;;;;17.42;8.60;;;;;;;5.48;100.00;93773.78;4911436;29;20044;-58
2022/11/14 07:38:25;;;;;;;17.40;8.20;;;;;;;5.53;100.00;93767.19;4904847;29;20059;-53
2022/11/14 07:41:09;;;;;;;15.10;7.57;;;;;;;5.59;100.00;93769.16;4908596;29;20044;-51
2022/11/14 07:43:36;;;;;;;13.65;6.70;;;;;;;5.61;100.00;93771.47;4911485;29;20401;-51
2022/11/14 07:46:10;;;;;;;17.30;8.40;;;;;;;5.58;100.00;93777.69;4912002;29;20040;-53
2022/11/14 07:48:37;;;;;;;15.57;7.82;;;;;;;5.69;100.00;93786.66;4911686;29;20056;-53
2022/11/14 07:51:08;;;;;;;13.93;7.05;;;;;;;5.69;100.00;93792.09;4911999;29;20111;-54
2022/11/14 07:53:34;;;;;;;11.73;5.90;;;;;;;5.75;100.00;93801.44;4911966;29;20111;-54
2022/11/14 07:56:04;;;;;;;11.75;5.68;;;;;;;5.74;100.00;93805.34;4906596;29;20106;-56
2022/11/14 07:58:34;;;;;;;11.53;5.40;;;;;;;5.76;100.00;93807.69;4875593;29;20049;-52
2022/11/14 08:01:01;;;;;;;11.15;5.70;;;;;;;5.76;100.00;93804.94;4873369;29;20124;-53
2022/11/14 08:03:28;;;;;;;12.40;5.18;;;;;;;5.73;100.00;93811.16;4874269;29;20049;-55
2022/11/14 08:06:01;;;;;;;11.82;5.25;;;;;;;5.68;100.00;93803.38;4873889;29;20120;-55
2022/11/14 08:08:27;;;;;;;14.15;6.63;;;;;;;5.67;100.00;93794.41;4874295;29;20347;-56
2022/11/14 08:10:56;;;;;;;14.40;6.73;;;;;;;5.70;100.00;93795.63;4873790;29;23486;-53
2022/11/14 08:13:24;;;;;;;18.00;8.05;;;;;;;5.71;100.00;93797.94;4873880;29;20045;-54
2022/11/14 08:15:59;;;;;;;14.18;6.78;;;;;;;5.74;100.00;93799.88;4873841;29;20088;-53
2022/11/14 08:18:25;;;;;;;14.77;6.60;;;;;;;5.71;100.00;93797.94;4874310;29;20053;-51
2022/11/14 08:20:53;;;;;;;13.82;6.75;;;;;;;5.75;100.00;93795.22;4873771;29;20057;-54
2022/11/14 08:23:19;;;;;;;14.87;7.40;;;;;;;5.73;100.00;93806.50;4874190;29;20057;-53
2022/11/14 08:25:46;;;;;;;15.18;6.93;;;;;;;5.74;100.00;93802.63;4873799;29;20061;-54
2022/11/14 08:28:13;;;;;;;14.15;6.70;;;;;;;5.70;100.00;93807.28;4873895;29;20055;-57
2022/11/14 08:30:39;;;;;;;13.75;6.97;;;;;;;5.74;100.00;93801.84;4874734;29;20063;-56
2022/11/14 08:33:06;;;;;;;14.02;7.18;;;;;;;5.74;100.00;93808.06;4877302;29;20109;-51
2022/11/14 08:35:33;;;;;;;11.97;5.90;;;;;;;5.76;100.00;93803.00;4877274;29;20045;-53
2022/11/14 08:38:03;;;;;;;12.55;6.35;;;;;;;5.85;100.00;93808.06;4876918;29;20492;-52
2022/11/14 08:40:30;;;;;;;12.50;6.72;;;;;;;5.88;100.00;93806.53;4902448;29;20048;-49
2022/11/14 08:43:01;;;;;;;11.73;6.20;;;;;;;5.90;100.00;93806.91;4914771;29;20548;-53
2022/11/14 08:45:28;;;;;;;12.75;6.50;;;;;;;5.95;100.00;93810.03;4914683;29;20081;-52
2022/11/14 08:47:55;;;;;;;12.97;6.40;;;;;;;6.01;100.00;93810.44;4914321;29;20186;-52
2022/11/14 08:50:22;;;;;;;12.27;5.90;;;;;;;6.00;100.00;93814.34;4914529;29;20048;-49
2022/11/14 08:52:51;;;;;;;14.00;6.38;;;;;;;6.00;100.00;93815.13;4897349;29;20127;-55
2022/11/14 08:55:19;;;;;;;13.20;6.80;;;;;;;6.12;100.00;93813.94;4914522;29;20060;-52
2022/11/14 08:57:46;;;;;;;13.20;6.60;;;;;;;6.15;100.00;93815.09;4914136;29;20056;-54
2022/11/14 09:00:16;;;;;;;11.67;6.03;;;;;;;6.21;100.00;93810.81;4914335;29;20046;-53
2022/11/14 09:02:42;;;;;;;13.25;6.22;;;;;;;6.18;100.00;93812.38;4897166;29;20478;-52
2022/11/14 09:05:10;;;;;;;13.35;6.57;;;;;;;6.21;100.00;93808.09;4914756;29;20048;-54
2022/11/14 09:07:36;;;;;;;12.18;5.82;;;;;;;6.28;100.00;93808.09;4914199;29;20048;-52
2022/11/14 09:10:04;;;;;;;12.95;5.80;;;;;;;6.26;100.00;93813.16;4897401;29;20044;-54
2022/11/14 09:12:31;;;;;;;12.90;5.80;;;;;;;6.32;100.00;93810.84;4914218;29;20056;-55
2022/11/14 09:14:58;;;;;;;13.15;6.30;;;;;;;6.29;100.00;93817.06;4881381;29;20127;-56
2022/11/14 09:17:25;;;;;;;10.82;5.32;;;;;;;6.20;100.00;93814.72;4914077;29;20052;-57
2022/11/14 09:19:51;;;;;;;10.25;5.00;;;;;;;6.29;100.00;93823.28;4913788;29;20067;-56
2022/11/14 09:22:18;;;;;;;11.30;5.68;;;;;;;6.36;100.00;93823.28;4913876;29;20113;-55
2022/11/14 09:24:46;;;;;;;9.73;4.63;;;;;;;6.33;100.00;93826.78;4913666;29;20480;-54
2022/11/14 09:27:13;;;;;;;12.85;5.72;;;;;;;6.35;100.00;93831.84;4913734;29;20066;-54
2022/11/14 09:29:40;;;;;;;9.65;4.72;;;;;;;6.31;100.00;93831.06;4913405;29;20056;-56
2022/11/14 09:32:06;;;;;;;10.45;5.10;;;;;;;6.30;100.00;93833.03;4913444;29;20461;-54
2022/11/14 09:34:33;;;;;;;10.95;5.60;;;;;;;6.31;100.00;93839.25;4913757;29;20110;-54
2022/11/14 09:37:00;;;;;;;10.53;6.00;;;;;;;6.24;100.00;93833.78;4913350;29;20111;-53
2022/11/14 09:39:26;;;;;;;18.77;6.85;;;;;;;6.34;100.00;93833.81;4908725;29;20454;-52
2022/11/14 09:42:14;;;;;;;13.80;5.97;;;;;;;6.32;100.00;93840.81;4893312;29;20139;-54
2022/11/14 09:44:43;;;;;;;11.40;5.43;;;;;;;6.29;100.00;93828.72;4894325;29;20293;-56
2022/11/14 09:47:17;;;;;;;8.50;4.47;;;;;;;6.17;100.00;93837.28;4894880;29;20669;-54
2022/11/14 09:49:49;;;;;;;9.27;4.63;;;;;;;6.15;100.00;93826.78;4894166;29;20058;-56
2022/11/14 09:52:31;;;;;;;11.23;5.47;;;;;;;6.26;100.00;93839.63;4894576;29;20324;-54
2022/11/14 09:55:02;;;;;;;8.75;4.50;;;;;;;6.28;100.00;93834.56;4894260;29;20115;-57
2022/11/14 09:57:29;;;;;;;9.77;4.57;;;;;;;6.24;100.00;93837.31;4894378;29;20063;-53
2022/11/14 09:59:56;;;;;;;9.85;5.15;;;;;;;6.32;100.00;93835.38;4894079;29;20115;-55
2022/11/14 10:02:35;;;;;;;11.30;4.53;;;;;;;6.48;100.00;93843.13;4894096;29;20049;-53
2022/11/14 10:05:47;;;;;;;8.70;4.28;;;;;;;6.42;100.00;93844.69;4893936;29;21542;-54
2022/11/14 10:08:33;;;;;;;8.48;4.47;;;;;;;6.46;100.00;93843.53;4893265;29;21756;-58
2022/11/14 10:11:09;;;;;;;9.02;4.68;;;;;;;6.49;100.00;93833.78;4893223;29;20811;-52
2022/11/14 10:14:19;;;;;;;11.98;5.03;;;;;;;6.57;100.00;93832.59;4893600;29;20279;-55
2022/11/14 10:17:04;;;;;;;9.37;4.70;;;;;;;6.53;100.00;93834.56;4862779;29;20096;-52
2022/11/14 10:19:56;;;;;;;8.50;4.68;;;;;;;6.54;100.00;93834.16;4893530;29;20083;-54
2022/11/14 10:22:41;;;;;;;11.63;4.97;;;;;;;6.66;100.00;93835.72;4894101;29;20198;-54
2022/11/14 10:25:22;;;;;;;8.25;4.63;;;;;;;6.68;100.00;93838.03;4893436;29;20683;-52
2022/11/14 10:27:49;;;;;;;11.93;5.47;;;;;;;6.63;100.00;93838.44;4893448;29;20044;-54
2022/11/14 10:30:34;;;;;;;10.70;5.03;;;;;;;6.66;100.00;93840.38;4893972;29;20076;-54
2022/11/14 10:33:26;;;;;;;11.13;5.00;;;;;;;6.63;100.00;93844.66;4892955;29;21759;-58
2022/11/14 10:36:14;;;;;;;11.23;5.40;;;;;;;6.77;100.00;93839.19;4876741;29;20507;-53
2022/11/14 10:38:51;;;;;;;8.98;4.70;;;;;;;6.83;100.00;93841.53;4893678;29;20430;-54
2022/11/14 10:41:18;;;;;;;13.55;6.03;;;;;;;6.83;100.00;93845.03;4875100;29;20111;-53
2022/11/14 10:44:12;;;;;;;9.77;4.90;;;;;;;6.75;100.00;93849.72;4874372;29;21498;-51
2022/11/14 10:46:46;;;;;;;7.95;4.25;;;;;;;6.68;100.00;93841.56;4874599;29;20823;-54
2022/11/14 10:49:21;;;;;;;9.55;5.18;;;;;;;6.70;100.00;93843.88;4858579;29;20124;-51
2022/11/14 10:52:03;;;;;;;13.15;5.57;;;;;;;6.71;100.00;93838.03;4857851;29;20471;-51
2022/11/14 10:54:37;;;;;;;11.13;5.45;;;;;;;6.60;100.00;93838.06;4874804;29;20049;-55
2022/11/14 10:57:17;;;;;;;10.67;5.17;;;;;;;6.61;100.00;93844.28;4857459;29;20084;-54
2022/11/14 10:59:43;;;;;;;10.38;4.80;;;;;;;6.69;100.00;93834.91;4874612;29;20061;-53
2022/11/14 11:02:10;;;;;;;16.60;6.53;;;;;;;6.65;100.00;93833.38;4874481;29;20422;-49
2022/11/14 11:04:39;;;;;;;14.98;6.57;;;;;;;6.71;100.00;93835.31;4874113;29;20513;-53
2022/11/14 11:13:12;;;;;;;12.60;6.70;;;;;;;6.92;100.00;93830.97;4873912;29;20647;-54
2022/11/14 11:15:40;;;;;;;13.25;6.00;;;;;;;7.05;100.00;93831.34;4874092;29;20055;-51
2022/11/14 11:18:32;;;;;;;11.95;5.93;;;;;;;7.07;100.00;93829.00;4874560;29;20053;-51
2022/11/14 11:21:05;;;;;;;14.82;6.95;;;;;;;7.08;100.00;93825.84;4867643;29;20045;-56
2022/11/14 11:23:32;;;;;;;13.40;6.57;;;;;;;7.10;100.00;93823.53;4874683;29;20048;-51
2022/11/14 11:26:06;;;;;;;12.25;6.72;;;;;;;7.01;100.00;93825.88;4874671;29;20490;-54
2022/11/14 11:28:35;;;;;;;12.07;5.60;;;;;;;7.35;100.00;93831.59;4893712;29;20044;-53
2022/11/14 11:31:09;;;;;;;11.77;4.95;;;;;;;7.24;100.00;93827.34;4891973;29;20877;-53
2022/11/14 11:33:38;;;;;;;12.15;5.53;;;;;;;7.22;100.00;93833.19;4892398;29;20095;-57
2022/11/14 11:36:21;;;;;;;10.63;5.20;;;;;;;7.39;100.00;93824.16;4892951;29;20099;-53
2022/11/14 11:38:48;;;;;;;12.27;5.00;;;;;;;7.59;100.00;93827.19;4892297;29;20058;-57